createdAt,value
2018-05-01T00:00:14.483Z,14.80
2018-05-01T00:02:43.766Z,14.80
2018-05-01T00:05:13.054Z,14.80
2018-05-01T00:07:42.322Z,14.80
2018-05-01T00:10:11.634Z,14.80
2018-05-01T00:12:40.922Z,14.80
2018-05-01T00:15:10.219Z,14.80
2018-05-01T00:17:39.537Z,14.60
2018-05-01T00:20:08.816Z,14.60
2018-05-01T00:22:38.097Z,14.60
2018-05-01T00:25:07.389Z,14.50
2018-05-01T00:27:36.676Z,14.50
2018-05-01T00:30:06.764Z,14.60
2018-05-01T00:32:36.046Z,14.60
2018-05-01T00:35:05.325Z,14.60
2018-05-01T00:37:34.639Z,14.60
2018-05-01T00:40:03.913Z,14.60
2018-05-01T00:42:33.199Z,14.60
2018-05-01T00:45:03.257Z,14.60
2018-05-01T00:47:32.527Z,14.60
2018-05-01T00:50:01.811Z,14.60
2018-05-01T00:52:44.729Z,14.60
2018-05-01T00:55:14.839Z,14.60
2018-05-01T00:57:44.094Z,14.60
2018-05-01T01:00:13.392Z,14.50
2018-05-01T01:02:42.690Z,14.60
2018-05-01T01:05:11.990Z,14.60
2018-05-01T01:07:41.274Z,14.60
2018-05-01T01:10:10.565Z,14.60
2018-05-01T01:12:40.622Z,14.60
2018-05-01T01:15:09.901Z,14.60
2018-05-01T01:17:39.211Z,14.60
2018-05-01T01:20:08.509Z,14.50
2018-05-01T01:22:37.792Z,14.50
2018-05-01T01:25:07.080Z,14.40
2018-05-01T01:27:36.367Z,14.00
2018-05-01T01:30:06.427Z,13.30
2018-05-01T01:32:35.731Z,13.30
2018-05-01T01:35:04.217Z,13.20
2018-05-01T01:37:32.716Z,13.00
2018-05-01T01:40:01.213Z,12.80
2018-05-01T01:42:29.715Z,12.80
2018-05-01T01:44:58.977Z,12.80
2018-05-01T01:47:27.463Z,12.80
2018-05-01T01:49:55.981Z,12.80
2018-05-01T01:52:24.503Z,12.60
2018-05-01T01:54:53.018Z,12.60
2018-05-01T01:57:21.502Z,12.60
2018-05-01T01:59:50.006Z,12.60
2018-05-01T02:02:19.289Z,12.30
2018-05-01T02:04:47.794Z,12.30
2018-05-01T02:07:16.275Z,12.00
2018-05-01T02:09:45.547Z,11.80
2018-05-01T02:12:14.058Z,11.70
2018-05-01T02:14:42.575Z,11.70
2018-05-01T02:17:11.075Z,11.60
2018-05-01T02:19:39.581Z,11.70
2018-05-01T02:22:08.073Z,11.60
2018-05-01T02:24:37.349Z,11.60
2018-05-01T02:27:05.849Z,11.50
2018-05-01T02:29:34.345Z,11.60
2018-05-01T02:32:03.613Z,11.60
2018-05-01T02:34:32.091Z,11.60
2018-05-01T02:37:00.592Z,11.60
2018-05-01T02:39:29.075Z,11.70
2018-05-01T02:41:58.355Z,11.70
2018-05-01T02:44:26.843Z,11.70
2018-05-01T02:46:55.360Z,11.70
2018-05-01T02:49:23.868Z,11.70
2018-05-01T02:51:52.390Z,11.70
2018-05-01T02:54:20.911Z,11.70
2018-05-01T02:56:49.404Z,11.70
2018-05-01T02:59:17.909Z,11.60
2018-05-01T03:01:46.405Z,11.60
2018-05-01T03:04:15.665Z,11.50
2018-05-01T03:06:44.154Z,11.40
2018-05-01T03:09:12.647Z,11.30
2018-05-01T03:11:41.159Z,11.30
2018-05-01T03:14:09.673Z,11.30
2018-05-01T03:16:38.927Z,11.20
2018-05-01T03:19:07.740Z,11.20
2018-05-01T03:21:36.306Z,11.30
2018-05-01T03:24:04.800Z,11.30
2018-05-01T03:26:33.304Z,11.30
2018-05-01T03:29:03.490Z,11.20
2018-05-01T03:31:31.997Z,11.20
2018-05-01T03:34:01.279Z,11.10
2018-05-01T03:36:29.772Z,11.10
2018-05-01T03:38:58.301Z,11.20
2018-05-01T03:41:26.778Z,11.30
2018-05-01T03:43:55.265Z,11.20
2018-05-01T03:46:23.747Z,11.00
2018-05-01T03:48:52.249Z,10.90
2018-05-01T03:51:20.738Z,10.90
2018-05-01T03:53:49.256Z,10.90
2018-05-01T03:56:18.510Z,10.90
2018-05-01T03:58:47.001Z,10.90
2018-05-01T04:01:15.531Z,10.90
2018-05-01T04:03:44.050Z,10.90
2018-05-01T04:06:12.548Z,11.00
2018-05-01T04:08:41.036Z,11.00
2018-05-01T04:11:09.553Z,10.90
2018-05-01T04:13:38.061Z,10.80
2018-05-01T04:16:06.555Z,10.80
2018-05-01T04:18:35.058Z,10.70
2018-05-01T04:21:03.569Z,10.70
2018-05-01T04:23:32.827Z,10.40
2018-05-01T04:26:01.345Z,10.40
2018-05-01T04:28:29.846Z,10.30
2018-05-01T04:30:59.219Z,10.00
2018-05-01T04:33:27.718Z,10.00
2018-05-01T04:35:57.001Z,9.80
2018-05-01T04:38:25.514Z,9.80
2018-05-01T04:40:54.785Z,9.80
2018-05-01T04:43:23.274Z,9.80
2018-05-01T04:45:51.750Z,9.80
2018-05-01T04:48:20.221Z,9.90
2018-05-01T04:50:48.735Z,9.90
2018-05-01T04:53:18.359Z,10.00
2018-05-01T04:55:46.851Z,10.00
2018-05-01T04:58:15.348Z,10.00
2018-05-01T05:00:43.875Z,9.90
2018-05-01T05:03:12.373Z,9.80
2018-05-01T05:05:41.637Z,10.00
2018-05-01T05:08:10.120Z,10.00
2018-05-01T05:10:38.630Z,10.10
2018-05-01T05:13:07.876Z,10.00
2018-05-01T05:15:36.367Z,10.00
2018-05-01T05:18:04.892Z,10.00
2018-05-01T05:20:34.165Z,10.00
2018-05-01T05:23:02.650Z,10.00
2018-05-01T05:25:31.158Z,10.00
2018-05-01T05:28:00.429Z,10.00
2018-05-01T05:30:28.917Z,10.00
2018-05-01T05:32:57.404Z,10.00
2018-05-01T05:35:25.900Z,10.00
2018-05-01T05:37:55.146Z,10.00
2018-05-01T05:40:23.647Z,10.00
2018-05-01T05:42:52.169Z,9.90
2018-05-01T05:45:20.610Z,9.80
2018-05-01T05:47:49.101Z,9.70
2018-05-01T05:50:17.578Z,9.70
2018-05-01T05:52:46.079Z,9.70
2018-05-01T05:55:14.563Z,9.60
2018-05-01T05:57:43.820Z,9.60
2018-05-01T06:00:12.379Z,9.60
2018-05-01T06:02:41.653Z,9.50
2018-05-01T06:05:10.118Z,9.60
2018-05-01T06:07:38.612Z,9.60
2018-05-01T06:10:07.866Z,9.70
2018-05-01T06:12:36.702Z,9.70
2018-05-01T06:15:05.175Z,9.70
2018-05-01T06:17:34.549Z,9.70
2018-05-01T06:20:03.750Z,9.70
2018-05-01T06:22:32.296Z,9.70
2018-05-01T06:25:01.395Z,9.70
2018-05-01T06:27:29.895Z,9.60
2018-05-01T06:29:58.375Z,9.70
2018-05-01T06:32:26.968Z,9.80
2018-05-01T06:34:55.543Z,9.60
2018-05-01T06:37:24.090Z,9.70
2018-05-01T06:39:52.524Z,9.50
2018-05-01T06:42:37.194Z,9.60
2018-05-01T06:45:09.284Z,9.70
2018-05-01T06:47:38.530Z,9.70
2018-05-01T06:50:07.022Z,9.70
2018-05-01T06:52:35.540Z,9.70
2018-05-01T06:55:08.219Z,9.70
2018-05-01T06:57:36.695Z,9.70
2018-05-01T07:00:05.191Z,9.80
2018-05-01T07:02:34.443Z,9.90
2018-05-01T07:05:02.930Z,9.90
2018-05-01T07:07:31.434Z,10.00
2018-05-01T07:10:01.179Z,10.00
2018-05-01T07:12:29.810Z,10.00
2018-05-01T07:14:58.316Z,10.10
2018-05-01T07:17:26.789Z,10.10
2018-05-01T07:19:55.287Z,10.10
2018-05-01T07:22:24.551Z,10.10
2018-05-01T07:24:53.061Z,10.10
2018-05-01T07:27:21.576Z,10.10
2018-05-01T07:29:51.863Z,10.20
2018-05-01T07:32:20.390Z,10.20
2018-05-01T07:34:48.889Z,10.30
2018-05-01T07:37:17.390Z,10.30
2018-05-01T07:39:47.517Z,10.50
2018-05-01T07:42:16.003Z,10.50
2018-05-01T07:44:44.538Z,10.50
2018-05-01T07:47:13.041Z,10.70
2018-05-01T07:49:41.595Z,10.60
2018-05-01T07:52:10.071Z,10.60
2018-05-01T07:54:38.585Z,10.60
2018-05-01T07:57:07.073Z,10.70
2018-05-01T07:59:35.662Z,10.80
2018-05-01T08:02:04.926Z,10.80
2018-05-01T08:04:35.650Z,10.90
2018-05-01T08:07:10.305Z,11.00
2018-05-01T08:09:38.787Z,11.10
2018-05-01T08:12:08.231Z,11.00
2018-05-01T08:14:36.683Z,11.10
2018-05-01T08:17:05.183Z,11.30
2018-05-01T08:19:33.707Z,11.20
2018-05-01T08:22:02.210Z,11.30
2018-05-01T08:24:31.112Z,11.40
2018-05-01T08:27:00.668Z,11.40
2018-05-01T08:29:29.155Z,11.40
2018-05-01T08:31:57.642Z,11.60
2018-05-01T08:34:26.154Z,11.80
2018-05-01T08:36:54.656Z,11.90
2018-05-01T08:39:23.157Z,12.00
2018-05-01T08:41:51.652Z,12.10
2018-05-01T08:44:20.155Z,12.30
2018-05-01T08:46:48.838Z,12.30
2018-05-01T08:49:17.337Z,12.20
2018-05-01T08:51:45.859Z,12.20
2018-05-01T08:54:14.341Z,12.30
2018-05-01T08:56:42.906Z,12.30
2018-05-01T08:59:11.405Z,12.40
2018-05-01T09:01:39.939Z,12.60
2018-05-01T09:04:08.484Z,12.70
2018-05-01T09:06:37.137Z,12.80
2018-05-01T09:09:05.697Z,12.80
2018-05-01T09:11:34.243Z,12.80
2018-05-01T09:14:02.728Z,12.70
2018-05-01T09:16:31.235Z,12.70
2018-05-01T09:18:59.729Z,12.80
2018-05-01T09:21:28.243Z,12.90
2018-05-01T09:23:56.764Z,12.80
2018-05-01T09:26:26.045Z,12.80
2018-05-01T09:28:54.547Z,12.80
2018-05-01T09:31:23.915Z,12.80
2018-05-01T09:33:52.350Z,12.80
2018-05-01T09:36:20.839Z,12.90
2018-05-01T09:38:49.412Z,13.00
2018-05-01T09:41:17.913Z,13.00
2018-05-01T09:43:46.422Z,13.10
2018-05-01T09:46:14.917Z,12.90
2018-05-01T09:48:43.450Z,12.90
2018-05-01T09:51:11.946Z,12.90
2018-05-01T09:53:42.125Z,12.80
2018-05-01T09:56:11.954Z,12.70
2018-05-01T09:58:41.812Z,12.90
2018-05-01T10:01:12.632Z,12.90
2018-05-01T10:03:43.563Z,13.00
2018-05-01T10:06:13.103Z,13.00
2018-05-01T10:08:42.427Z,13.20
2018-05-01T10:11:12.476Z,13.50
2018-05-01T10:13:41.840Z,13.50
2018-05-01T10:16:11.839Z,13.60
2018-05-01T10:18:42.210Z,13.60
2018-05-01T10:21:22.758Z,13.60
2018-05-01T10:23:53.472Z,13.70
2018-05-01T10:26:24.284Z,13.80
2018-05-01T10:28:54.470Z,13.90
2018-05-01T10:31:24.094Z,13.80
2018-05-01T10:33:54.673Z,13.50
2018-05-01T10:36:24.639Z,13.50
2018-05-01T10:38:54.585Z,13.30
2018-05-01T10:41:25.314Z,13.30
2018-05-01T10:43:55.775Z,13.20
2018-05-01T10:46:27.813Z,13.10
2018-05-01T10:48:57.565Z,13.10
2018-05-01T10:51:30.527Z,13.20
2018-05-01T10:54:00.885Z,13.20
2018-05-01T10:56:33.892Z,13.20
2018-05-01T10:59:07.101Z,13.30
2018-05-01T11:01:36.748Z,13.40
2018-05-01T11:04:06.435Z,13.30
2018-05-01T11:06:39.113Z,13.30
2018-05-01T11:09:09.844Z,13.40
2018-05-01T11:11:40.964Z,13.30
2018-05-01T11:14:11.462Z,13.30
2018-05-01T11:16:46.489Z,13.40
2018-05-01T11:19:19.970Z,13.40
2018-05-01T11:21:58.589Z,13.60
2018-05-01T11:24:32.378Z,13.60
2018-05-01T11:27:03.260Z,13.60
2018-05-01T11:29:34.112Z,13.70
2018-05-01T11:32:03.868Z,13.80
2018-05-01T11:34:33.179Z,14.00
2018-05-01T11:37:02.448Z,14.00
2018-05-01T11:39:31.744Z,14.00
2018-05-01T11:42:01.046Z,13.90
2018-05-01T11:44:30.342Z,14.10
2018-05-01T11:46:59.637Z,14.30
2018-05-01T11:49:28.929Z,14.40
2018-05-01T11:51:58.267Z,14.70
2018-05-01T11:54:27.675Z,14.90
2018-05-01T11:56:56.979Z,15.00
2018-05-01T11:59:26.262Z,15.10
2018-05-01T12:01:55.691Z,15.00
2018-05-01T12:04:24.997Z,14.90
2018-05-01T12:06:54.286Z,14.80
2018-05-01T12:09:25.790Z,14.70
2018-05-01T12:11:55.271Z,14.50
2018-05-01T12:14:24.574Z,14.50
2018-05-01T12:16:54.623Z,14.40
2018-05-01T12:19:24.462Z,14.40
2018-05-01T12:21:53.746Z,14.50
2018-05-01T12:24:23.075Z,14.40
2018-05-01T12:26:52.370Z,14.40
2018-05-01T12:29:22.477Z,14.60
2018-05-01T12:31:51.767Z,14.90
2018-05-01T12:34:27.718Z,15.00
2018-05-01T12:37:10.276Z,15.10
2018-05-01T12:39:46.945Z,15.10
2018-05-01T12:42:17.407Z,15.10
2018-05-01T12:44:49.624Z,14.90
2018-05-01T12:47:20.688Z,14.90
2018-05-01T12:49:55.134Z,14.70
2018-05-01T12:52:37.590Z,14.70
2018-05-01T12:55:11.589Z,14.60
2018-05-01T12:57:43.920Z,14.60
2018-05-01T13:00:16.708Z,14.50
2018-05-01T13:02:50.468Z,14.50
2018-05-01T13:05:24.834Z,14.60
2018-05-01T13:07:57.792Z,14.60
2018-05-01T13:10:33.525Z,14.60
2018-05-01T13:13:09.403Z,14.50
2018-05-01T13:15:43.399Z,14.50
2018-05-01T13:18:14.322Z,14.70
2018-05-01T13:20:46.250Z,14.70
2018-05-01T13:23:15.997Z,14.70
2018-05-01T13:25:45.297Z,14.80
2018-05-01T13:28:15.438Z,14.80
2018-05-01T13:30:44.840Z,14.70
2018-05-01T13:33:16.426Z,14.30
2018-05-01T13:35:45.766Z,14.30
2018-05-01T13:38:16.176Z,14.30
2018-05-01T13:40:45.981Z,14.30
2018-05-01T13:43:15.560Z,14.40
2018-05-01T13:45:44.949Z,14.50
2018-05-01T13:48:14.238Z,14.40
2018-05-01T13:50:43.537Z,14.20
2018-05-01T13:53:12.820Z,14.20
2018-05-01T13:55:42.129Z,14.40
2018-05-01T14:01:37.392Z,14.40
2018-05-01T14:04:11.803Z,14.30
2018-05-01T14:12:32.759Z,14.50
2018-05-01T14:18:16.192Z,14.70
2018-05-01T14:23:49.145Z,14.60
2018-05-01T14:26:18.935Z,14.70
2018-05-01T14:28:49.029Z,15.00
2018-05-01T14:31:20.457Z,15.00
2018-05-01T14:34:22.065Z,15.10
2018-05-01T14:36:51.396Z,15.10
2018-05-01T14:42:42.073Z,14.90
2018-05-01T14:45:17.472Z,14.70
2018-05-01T14:48:01.530Z,14.70
2018-05-01T14:50:32.785Z,14.70
2018-05-01T14:55:58.810Z,14.80
2018-05-01T14:58:28.105Z,14.90
2018-05-01T15:00:59.712Z,14.90
2018-05-01T15:06:48.930Z,14.90
2018-05-01T15:09:28.099Z,15.00
2018-05-01T15:12:17.354Z,14.90
2018-05-01T15:14:58.560Z,14.70
2018-05-01T15:17:30.765Z,14.80
2018-05-01T15:20:12.905Z,14.70
2018-05-01T15:22:55.093Z,14.70
2018-05-01T15:25:30.071Z,14.60
2018-05-01T15:28:10.279Z,14.40
2018-05-01T15:30:39.557Z,14.30
2018-05-01T15:33:08.847Z,14.30
2018-05-01T15:35:44.919Z,14.20
2018-05-01T15:38:19.242Z,14.20
2018-05-01T15:40:54.011Z,14.10
2018-05-01T15:43:32.688Z,14.20
2018-05-01T15:46:10.919Z,14.20
2018-05-01T15:48:53.794Z,14.30
2018-05-01T15:51:28.293Z,14.30
2018-05-01T15:53:58.077Z,14.30
2018-05-01T15:56:30.548Z,14.40
2018-05-01T15:59:00.110Z,14.50
2018-05-01T16:01:38.961Z,14.50
2018-05-01T16:04:15.876Z,14.60
2018-05-01T16:06:47.233Z,14.70
2018-05-01T16:09:16.529Z,14.70
2018-05-01T16:11:46.171Z,14.60
2018-05-01T16:14:16.529Z,14.60
2018-05-01T16:16:55.135Z,14.60
2018-05-01T16:19:38.022Z,14.60
2018-05-01T16:22:10.772Z,14.70
2018-05-01T16:24:51.472Z,14.60
2018-05-01T16:27:27.123Z,14.70
2018-05-01T16:30:06.853Z,14.70
2018-05-01T16:35:33.919Z,14.80
2018-05-01T16:38:10.604Z,14.80
2018-05-01T16:40:46.986Z,14.80
2018-05-01T16:43:23.434Z,14.70
2018-05-01T16:46:00.390Z,14.70
2018-05-01T16:51:11.351Z,14.80
2018-05-01T16:53:43.255Z,14.90
2018-05-01T16:56:14.576Z,14.90
2018-05-01T16:58:48.176Z,14.80
2018-05-01T17:01:24.720Z,14.80
2018-05-01T17:03:55.487Z,14.80
2018-05-01T17:06:29.298Z,14.70
2018-05-01T17:08:59.148Z,14.60
2018-05-01T17:11:29.495Z,14.60
2018-05-01T17:13:59.594Z,14.70
2018-05-01T17:16:28.871Z,14.60
2018-05-01T17:18:58.180Z,14.60
2018-05-01T17:21:27.479Z,14.50
2018-05-01T17:23:56.789Z,14.50
2018-05-01T17:26:26.102Z,14.40
2018-05-01T17:28:56.181Z,14.50
2018-05-01T17:31:25.462Z,14.50
2018-05-01T17:33:54.833Z,14.40
2018-05-01T17:36:24.891Z,14.40
2018-05-01T17:38:55.607Z,14.40
2018-05-01T17:41:25.202Z,14.50
2018-05-01T17:43:54.473Z,14.40
2018-05-01T17:46:23.773Z,14.40
2018-05-01T17:48:53.157Z,14.50
2018-05-01T17:51:22.353Z,14.50
2018-05-01T17:53:52.553Z,14.30
2018-05-01T17:56:22.193Z,14.30
2018-05-01T17:58:52.298Z,14.30
2018-05-01T18:01:22.158Z,14.30
2018-05-01T18:03:51.934Z,14.20
2018-05-01T18:06:21.286Z,14.10
2018-05-01T18:08:50.631Z,13.90
2018-05-01T18:11:20.186Z,13.80
2018-05-01T18:13:49.644Z,13.70
2018-05-01T18:16:19.907Z,13.70
2018-05-01T18:18:50.275Z,13.60
2018-05-01T18:21:19.871Z,13.60
2018-05-01T18:23:49.171Z,13.60
2018-05-01T18:26:18.461Z,13.60
2018-05-01T18:28:47.974Z,13.70
2018-05-01T18:31:17.263Z,13.60
2018-05-01T18:33:46.557Z,13.70
2018-05-01T18:36:15.913Z,13.70
2018-05-01T18:38:45.144Z,13.70
2018-05-01T18:41:15.218Z,13.70
2018-05-01T18:43:44.617Z,13.70
2018-05-01T18:46:13.933Z,13.60
2018-05-01T18:48:43.236Z,13.50
2018-05-01T18:51:12.541Z,13.50
2018-05-01T18:53:42.708Z,13.50
2018-05-01T18:56:12.124Z,13.50
2018-05-01T18:58:41.453Z,13.40
2018-05-01T19:01:10.810Z,13.30
2018-05-01T19:03:41.035Z,13.40
2018-05-01T19:06:10.374Z,13.30
2018-05-01T19:08:39.694Z,13.20
2018-05-01T19:11:09.024Z,13.20
2018-05-01T19:13:38.314Z,13.10
2018-05-01T19:16:07.662Z,13.00
2018-05-01T19:18:36.988Z,12.90
2018-05-01T19:21:06.269Z,12.90
2018-05-01T19:23:35.558Z,12.90
2018-05-01T19:26:09.869Z,12.90
2018-05-01T19:28:39.187Z,12.90
2018-05-01T19:31:08.637Z,13.00
2018-05-01T19:33:38.778Z,13.00
2018-05-01T19:36:08.139Z,13.00
2018-05-01T19:38:38.043Z,13.10
2018-05-01T19:41:07.417Z,13.10
2018-05-01T19:43:37.841Z,13.00
2018-05-01T19:46:07.185Z,13.00
2018-05-01T19:48:36.548Z,13.00
2018-05-01T19:51:06.658Z,13.00
2018-05-01T19:53:36.724Z,13.00
2018-05-01T19:56:06.186Z,13.00
2018-05-01T19:58:35.535Z,13.00
2018-05-01T20:01:04.860Z,12.90
2018-05-01T20:03:34.927Z,12.90
2018-05-01T20:06:04.301Z,12.90
2018-05-01T20:08:34.723Z,12.70
2018-05-01T20:11:04.055Z,12.70
2018-05-01T20:13:33.379Z,12.70
2018-05-01T20:16:02.677Z,12.70
2018-05-01T20:18:32.786Z,12.60
2018-05-01T20:21:02.154Z,12.60
2018-05-01T20:23:31.439Z,12.60
2018-05-01T20:26:00.729Z,12.60
2018-05-01T20:28:30.818Z,12.60
2018-05-01T20:31:00.154Z,12.50
2018-05-01T20:33:30.218Z,12.40
2018-05-01T20:35:59.670Z,12.40
2018-05-01T20:38:29.734Z,12.20
2018-05-01T20:40:59.105Z,12.20
2018-05-01T20:43:28.411Z,12.20
2018-05-01T20:45:57.800Z,12.10
2018-05-01T20:48:27.879Z,12.10
2018-05-01T20:50:57.546Z,12.10
2018-05-01T20:53:26.953Z,12.10
2018-05-01T20:55:56.295Z,12.10
2018-05-01T20:58:25.668Z,12.10
2018-05-01T21:00:55.281Z,12.10
2018-05-01T21:03:24.809Z,12.10
2018-05-01T21:05:54.288Z,12.10
2018-05-01T21:08:23.657Z,12.00
2018-05-01T21:10:54.004Z,12.00
2018-05-01T21:13:24.068Z,11.90
2018-05-01T21:15:53.517Z,11.90
2018-05-01T21:18:22.909Z,11.80
2018-05-01T21:20:52.324Z,11.70
2018-05-01T21:23:21.824Z,11.70
2018-05-01T21:25:51.257Z,11.60
2018-05-01T21:28:20.645Z,11.50
2018-05-01T21:30:50.138Z,11.40
2018-05-01T21:33:20.063Z,11.30
2018-05-01T21:35:49.438Z,11.20
2018-05-01T21:38:19.379Z,11.10
2018-05-01T21:40:50.255Z,10.90
2018-05-01T21:43:21.238Z,10.90
2018-05-01T21:45:51.375Z,10.90
2018-05-01T21:48:21.355Z,10.90
2018-05-01T21:50:51.481Z,10.80
2018-05-01T21:53:20.939Z,10.80
2018-05-01T21:55:51.076Z,10.80
2018-05-01T21:58:20.544Z,10.80
2018-05-01T22:00:50.621Z,10.70
2018-05-01T22:03:21.369Z,10.60
2018-05-01T22:05:51.815Z,10.50
2018-05-01T22:08:21.253Z,10.50
2018-05-01T22:10:50.745Z,10.40
2018-05-01T22:13:20.178Z,10.40
2018-05-01T22:15:49.534Z,10.40
2018-05-01T22:18:20.053Z,10.40
2018-05-01T22:20:50.461Z,10.40
2018-05-01T22:23:19.884Z,10.40
2018-05-01T22:25:49.540Z,10.30
2018-05-01T22:28:19.790Z,10.20
2018-05-01T22:30:51.796Z,10.20
2018-05-01T22:33:22.539Z,10.10
2018-05-01T22:35:52.163Z,10.10
2018-05-01T22:38:22.505Z,10.00
2018-05-01T22:40:52.101Z,10.00
2018-05-01T22:43:21.587Z,9.90
2018-05-01T22:45:51.023Z,9.80
2018-05-01T22:48:20.445Z,9.80
2018-05-01T22:50:51.061Z,9.80
2018-05-01T22:53:20.613Z,9.80
2018-05-01T22:55:50.055Z,9.80
2018-05-01T22:58:19.878Z,9.80
2018-05-01T23:00:49.257Z,9.70
2018-05-01T23:03:18.645Z,9.70
2018-05-01T23:05:48.002Z,9.70
2018-05-01T23:08:17.409Z,9.70
2018-05-01T23:10:47.551Z,9.60
2018-05-01T23:13:17.966Z,9.60
2018-05-01T23:15:47.425Z,9.60
2018-05-01T23:18:16.831Z,9.50
2018-05-01T23:20:47.040Z,9.50
2018-05-01T23:23:16.402Z,9.50
2018-05-01T23:25:45.714Z,9.50
2018-05-01T23:28:15.112Z,9.50
2018-05-01T23:30:44.498Z,9.40
2018-05-01T23:33:13.830Z,9.30
2018-05-01T23:35:43.170Z,9.30
2018-05-01T23:38:13.300Z,9.30
2018-05-01T23:40:42.628Z,9.30
2018-05-01T23:43:12.730Z,9.30
2018-05-01T23:45:42.223Z,9.30
2018-05-01T23:48:11.557Z,9.30
2018-05-01T23:50:40.867Z,9.30
2018-05-01T23:53:10.202Z,9.30
2018-05-01T23:55:39.700Z,9.20
2018-05-01T23:58:09.126Z,9.10
